createdAt,value
2019-03-02T18:43:15.140Z,6.20
2019-03-02T18:45:45.855Z,6.10
2019-03-02T18:48:29.979Z,6.00
2019-03-02T18:51:24.311Z,6.00
2019-03-02T18:54:11.953Z,5.90
2019-03-02T18:56:41.097Z,5.90
2019-03-02T18:59:10.262Z,5.80
2019-03-02T19:01:39.878Z,5.70
2019-03-02T19:04:09.201Z,5.80
2019-03-02T19:06:38.541Z,5.70
2019-03-02T19:09:09.844Z,5.70
2019-03-02T19:11:39.114Z,5.70
2019-03-02T19:14:08.210Z,5.60
2019-03-02T19:16:37.506Z,5.50
2019-03-02T19:19:06.728Z,5.50
2019-03-02T19:21:35.878Z,5.50
2019-03-02T19:24:05.442Z,5.50
2019-03-02T19:26:34.732Z,5.40
2019-03-02T19:29:04.268Z,5.50
2019-03-02T19:31:33.597Z,5.40
2019-03-02T19:34:02.763Z,5.40
2019-03-02T19:36:31.936Z,5.40
2019-03-02T19:39:01.399Z,5.40
2019-03-02T19:41:30.830Z,5.40
2019-03-02T19:44:00.095Z,5.40
2019-03-02T19:46:29.298Z,5.30
2019-03-02T19:48:58.957Z,5.30
2019-03-02T19:51:28.207Z,5.30
2019-03-02T19:53:57.608Z,5.30
2019-03-02T19:56:27.655Z,5.30
2019-03-02T19:58:56.784Z,5.30
2019-03-02T20:01:26.024Z,5.20
2019-03-02T20:03:55.262Z,5.20
2019-03-02T20:06:24.702Z,5.20
2019-03-02T20:08:53.881Z,5.10
2019-03-02T20:11:23.076Z,5.10
2019-03-02T20:13:52.298Z,5.10
2019-03-02T20:16:21.472Z,5.00
2019-03-02T20:18:50.582Z,5.00
2019-03-02T20:21:19.822Z,5.00
2019-03-02T20:23:49.032Z,5.10
2019-03-02T20:26:18.322Z,5.00
2019-03-02T20:28:47.399Z,5.00
2019-03-02T20:31:16.748Z,5.00
2019-03-02T20:33:45.899Z,5.00
2019-03-02T20:36:14.967Z,5.00
2019-03-02T20:38:44.251Z,5.00
2019-03-02T20:41:13.336Z,5.10
2019-03-02T20:43:42.559Z,5.00
2019-03-02T20:46:11.621Z,5.00
2019-03-02T20:48:40.758Z,5.00
2019-03-02T20:51:09.852Z,5.00
2019-03-02T20:53:38.977Z,5.00
2019-03-02T20:56:08.118Z,5.00
2019-03-02T20:58:37.283Z,5.00
2019-03-02T21:01:06.505Z,5.00
2019-03-02T21:03:35.710Z,4.90
2019-03-02T21:06:05.149Z,4.90
2019-03-02T21:08:34.341Z,4.90
2019-03-02T21:11:03.615Z,4.80
2019-03-02T21:13:32.733Z,4.90
2019-03-02T21:16:01.969Z,4.80
2019-03-02T21:18:31.104Z,4.80
2019-03-02T21:21:00.337Z,4.80
2019-03-02T21:23:29.683Z,4.90
2019-03-02T21:25:59.101Z,4.90
2019-03-02T21:28:30.292Z,4.90
2019-03-02T21:30:59.388Z,4.90
2019-03-02T21:33:28.738Z,4.90
2019-03-02T21:35:57.850Z,5.00
2019-03-02T21:38:26.988Z,5.10
2019-03-02T21:40:56.256Z,5.10
2019-03-02T21:43:25.398Z,5.20
2019-03-02T21:45:54.498Z,5.20
2019-03-02T21:48:23.759Z,5.30
2019-03-02T21:50:53.046Z,5.40
2019-03-02T21:53:24.882Z,5.40
2019-03-02T21:55:54.104Z,5.40
2019-03-02T21:58:26.940Z,5.50
2019-03-02T22:00:56.204Z,5.50
2019-03-02T22:03:25.742Z,5.50
2019-03-02T22:05:54.738Z,5.50
2019-03-02T22:08:24.041Z,5.50
2019-03-02T22:10:57.579Z,5.50
2019-03-02T22:13:26.878Z,5.50
2019-03-02T22:15:56.243Z,5.50
2019-03-02T22:18:25.691Z,5.60
2019-03-02T22:20:57.332Z,5.60
2019-03-02T22:23:26.470Z,5.70
2019-03-02T22:25:55.658Z,5.80
2019-03-02T22:28:24.852Z,5.80
2019-03-02T22:30:54.353Z,5.90
2019-03-02T22:33:23.492Z,5.90
2019-03-02T22:35:52.731Z,5.90
2019-03-02T22:38:22.150Z,6.00
2019-03-02T22:40:51.314Z,6.00
2019-03-02T22:43:20.572Z,6.00
2019-03-02T22:45:49.826Z,6.10
2019-03-02T22:48:18.963Z,6.10
2019-03-02T22:50:48.064Z,6.10
2019-03-02T22:53:17.561Z,6.10
2019-03-02T22:55:46.742Z,6.10
2019-03-02T22:58:15.855Z,6.10
2019-03-02T23:01:30.605Z,6.10
2019-03-02T23:04:00.122Z,5.90
2019-03-02T23:06:29.206Z,5.80
2019-03-02T23:08:58.410Z,5.70
2019-03-02T23:11:27.631Z,5.60
2019-03-02T23:13:56.700Z,5.50
2019-03-02T23:16:26.000Z,5.40
2019-03-02T23:18:55.173Z,5.50
2019-03-02T23:21:24.352Z,5.50
2019-03-02T23:23:54.979Z,5.50
2019-03-02T23:26:24.172Z,5.50
2019-03-02T23:28:53.250Z,5.50
2019-03-02T23:31:22.426Z,5.50
2019-03-02T23:33:51.540Z,5.60
2019-03-02T23:36:20.682Z,5.60
2019-03-02T23:38:49.818Z,5.70
2019-03-02T23:41:19.699Z,5.70
2019-03-02T23:43:48.895Z,5.70
2019-03-02T23:46:18.202Z,5.80
2019-03-02T23:48:47.321Z,5.80
2019-03-02T23:51:16.341Z,5.90
2019-03-02T23:53:45.487Z,5.90
2019-03-02T23:56:14.650Z,5.90
2019-03-02T23:58:43.853Z,5.90
